Time,TemperatureF,DewpointF,PressureIn,WindDirection,WindDirectionDegrees,WindSpeedMPH,WindSpeedGustMPH,Humidity,HourlyPrecipIn,Conditions,Clouds,dailyrainin,SoftwareType,DateUTC
2014-02-02 00:22:00,33.0,25.0,30.23,SSE,164,0.0,-999.0,73,-99.99,,,-99.99,,2014-02-02 05:22:00,
2014-02-02 00:52:00,34.0,27.0,30.22,SSE,164,0.0,-999.0,76,-99.99,,,-99.99,,2014-02-02 05:52:00,
2014-02-02 01:22:00,33.0,26.0,30.22,SSE,164,0.0,-999.0,76,-99.99,,,-99.99,,2014-02-02 06:22:00,
2014-02-02 01:52:00,33.0,27.0,30.21,SSE,164,0.0,-999.0,78,-99.99,,,-99.99,,2014-02-02 06:52:00,
2014-02-02 02:22:00,33.0,27.0,30.20,WNW,291,0.0,-999.0,78,-99.99,,,-99.99,,2014-02-02 07:22:00,
2014-02-02 02:52:00,32.0,27.0,30.19,WNW,291,0.0,-999.0,81,-99.99,,,-99.99,,2014-02-02 07:52:00,
2014-02-02 03:22:00,32.0,27.0,30.19,WNW,291,0.0,-999.0,81,-99.99,,,-99.99,,2014-02-02 08:22:00,
2014-02-02 03:52:00,32.0,27.0,30.19,WNW,291,0.0,-999.0,83,-99.99,,,-99.99,,2014-02-02 08:52:00,
2014-02-02 04:22:00,32.0,27.0,30.19,WNW,291,0.0,-999.0,82,-99.99,,,-99.99,,2014-02-02 09:22:00,
2014-02-02 04:53:00,31.0,27.0,30.19,WNW,291,0.0,-999.0,84,-99.99,,,-99.99,,2014-02-02 09:53:00,
2014-02-02 05:23:00,30.0,26.0,30.18,WNW,291,0.0,-999.0,86,-99.99,,,-99.99,,2014-02-02 10:23:00,
2014-02-02 05:52:00,30.0,27.0,30.18,WNW,291,0.0,-999.0,87,-99.99,,,-99.99,,2014-02-02 10:52:00,
2014-02-02 06:22:00,30.0,27.0,30.18,WNW,298,0.0,-999.0,87,-99.99,,,-99.99,,2014-02-02 11:22:00,
2014-02-02 06:53:00,29.0,26.0,30.19,WNW,298,0.0,-999.0,88,-99.99,,,-99.99,,2014-02-02 11:53:00,
2014-02-02 07:22:00,30.0,27.0,30.19,WNW,298,0.0,-999.0,89,-99.99,,,-99.99,,2014-02-02 12:22:00,
2014-02-02 07:52:00,32.0,29.0,30.20,NW,305,0.0,-999.0,88,-99.99,,,-99.99,,2014-02-02 12:52:00,
2014-02-02 08:22:00,33.0,29.0,30.22,NW,305,0.0,-999.0,86,-99.99,,,-99.99,,2014-02-02 13:22:00,
2014-02-02 08:52:00,35.0,31.0,30.22,NW,305,0.0,-999.0,85,-99.99,,,-99.99,,2014-02-02 13:52:00,
2014-02-02 09:22:00,38.0,34.0,30.23,NW,305,0.0,-999.0,85,-99.99,,,-99.99,,2014-02-02 14:22:00,
2014-02-02 09:52:00,43.0,38.0,30.22,NW,305,0.0,-999.0,84,-99.99,,,-99.99,,2014-02-02 14:52:00,
2014-02-02 10:22:00,47.0,43.0,30.23,WNW,282,1.0,-999.0,87,-99.99,,,-99.99,,2014-02-02 15:22:00,
2014-02-02 11:53:00,55.0,48.0,30.20,WNW,284,1.0,-999.0,76,-99.99,,,-99.99,,2014-02-02 16:53:00,
2014-02-02 12:22:00,59.0,49.0,30.19,SW,233,1.0,-999.0,70,-99.99,,,-99.99,,2014-02-02 17:22:00,
2014-02-02 12:52:00,62.0,50.0,30.17,South,185,1.0,-999.0,64,-99.99,,,-99.99,,2014-02-02 17:52:00,
2014-02-02 13:22:00,62.0,50.0,30.16,West,270,1.0,-999.0,65,-99.99,,,-99.99,,2014-02-02 18:22:00,
2014-02-02 13:52:00,62.0,50.0,30.14,West,281,1.0,-999.0,64,-99.99,,,-99.99,,2014-02-02 18:52:00,
2014-02-02 14:22:00,63.0,50.0,30.12,WSW,246,1.0,-999.0,63,-99.99,,,-99.99,,2014-02-02 19:22:00,
2014-02-02 14:52:00,64.0,51.0,30.11,West,265,3.0,-999.0,62,-99.99,,,-99.99,,2014-02-02 19:52:00,
2014-02-02 15:12:00,63.0,50.0,30.11,West,281,2.0,-999.0,63,-99.99,,,-99.99,,2014-02-02 20:12:00,
2014-02-02 15:22:00,63.0,50.0,30.11,West,281,2.0,-999.0,63,-99.99,,,-99.99,,2014-02-02 20:22:00,
2014-02-02 15:33:00,63.0,50.0,30.11,West,281,2.0,-999.0,63,-99.99,,,-99.99,,2014-02-02 20:33:00,
2014-02-02 17:23:00,62.0,51.0,30.08,West,276,0.0,-999.0,68,-99.99,,,-99.99,,2014-02-02 22:23:00,
2014-02-02 17:52:00,61.0,51.0,30.09,West,271,0.0,-999.0,69,-99.99,,,-99.99,,2014-02-02 22:52:00,
2014-02-02 18:22:00,59.0,50.0,30.09,SW,225,1.0,-999.0,71,-99.99,,,-99.99,,2014-02-02 23:22:00,
2014-02-02 18:53:00,58.0,50.0,30.09,SW,225,0.0,-999.0,74,-99.99,,,-99.99,,2014-02-02 23:53:00,
2014-02-02 19:22:00,56.0,49.0,30.09,South,175,0.0,-999.0,78,-99.99,,,-99.99,,2014-02-03 00:22:00,
2014-02-02 19:52:00,56.0,50.0,30.09,SE,134,0.0,-999.0,79,-99.99,,,-99.99,,2014-02-03 00:52:00,
2014-02-02 20:22:00,56.0,50.0,30.08,East,98,0.0,-999.0,80,-99.99,,,-99.99,,2014-02-03 01:22:00,
2014-02-02 20:52:00,56.0,51.0,30.09,ENE,71,0.0,-999.0,84,-99.99,,,-99.99,,2014-02-03 01:52:00,
2014-02-02 21:22:00,53.0,50.0,30.09,ENE,71,0.0,-999.0,89,-99.99,,,-99.99,,2014-02-03 02:22:00,
2014-02-02 21:52:00,52.0,49.0,30.06,ENE,58,0.0,-999.0,90,-99.99,,,-99.99,,2014-02-03 02:52:00,
2014-02-02 22:22:00,52.0,49.0,30.06,ENE,58,0.0,-999.0,91,-99.99,,,-99.99,,2014-02-03 03:22:00,
2014-02-02 22:53:00,52.0,49.0,30.04,ENE,58,0.0,-999.0,91,-99.99,,,-99.99,,2014-02-03 03:53:00,
2014-02-02 23:23:00,52.0,49.0,30.03,East,84,1.0,-999.0,91,-99.99,,,-99.99,,2014-02-03 04:23:00,
2014-02-02 23:53:00,52.0,49.0,30.01,NE,55,0.0,-999.0,91,-99.99,,,-99.99,,2014-02-03 04:53:00,